DAOI

Ech Cheliff Airport

Algeria
METAR DAOI 241100Z 08004KT CAVOK 33/15 Q1020
Observed Flight Rules
Sep-24 @ 11:00 UTC (32 minutes ago) Visual Flight Rules
Wind Visibility Clouds
80° at 4 knots 10,000+ meters
  • Clear skies
Temperatures Readings
Current 33°C / 91°F
Dewpoint 15°C / 59°F
Humidity 34%
Altimeter 30.12" Hg
Pressure 1020 hPa
Elevation 143
METAR DAOI 241100Z 08004KT CAVOK 33/15 Q1020
Observed Flight Rules
Sep-24 @ 11:00 UTC
(32 minutes ago)
VFR
Wind Visibility
80° at 4 knots 10,000+ meters
Clouds
  • Clear skies
Temperature Dewpoint
33°C / 91°F 15°C / 59°F
Humidity Altimeter Pressure
34% 30.12" Hg 1020 hPa